sensor_id;sensor_type;location;lat;lon;timestamp;P1;durP1;ratioP1;P2;durP2;ratioP2
20802;SDS011;10562;-33.856;151.182;2022-10-04T00:01:50;1.92;;;0.90;;
20802;SDS011;10562;-33.856;151.182;2022-10-04T00:04:27;4.32;;;1.20;;
20802;SDS011;10562;-33.856;151.182;2022-10-04T00:07:13;4.07;;;1.25;;
20802;SDS011;10562;-33.856;151.182;2022-10-04T00:09:48;3.28;;;1.20;;
20802;SDS011;10562;-33.856;151.182;2022-10-04T00:12:23;2.60;;;1.10;;
20802;SDS011;10562;-33.856;151.182;2022-10-04T00:14:56;5.82;;;1.42;;
20802;SDS011;10562;-33.856;151.182;2022-10-04T00:17:28;4.85;;;1.20;;
20802;SDS011;10562;-33.856;151.182;2022-10-04T00:20:03;4.20;;;1.25;;
20802;SDS011;10562;-33.856;151.182;2022-10-04T00:25:57;5.82;;;1.20;;
20802;SDS011;10562;-33.856;151.182;2022-10-04T00:31:18;4.95;;;1.48;;
20802;SDS011;10562;-33.856;151.182;2022-10-04T00:33:52;7.35;;;1.13;;
20802;SDS011;10562;-33.856;151.182;2022-10-04T00:36:48;5.22;;;1.27;;
20802;SDS011;10562;-33.856;151.182;2022-10-04T00:39:40;9.40;;;1.25;;
20802;SDS011;10562;-33.856;151.182;2022-10-04T00:42:33;4.65;;;1.30;;
20802;SDS011;10562;-33.856;151.182;2022-10-04T00:45:13;5.30;;;1.20;;
20802;SDS011;10562;-33.856;151.182;2022-10-04T00:50:53;2.83;;;1.08;;
20802;SDS011;10562;-33.856;151.182;2022-10-04T00:53:41;5.70;;;1.20;;
20802;SDS011;10562;-33.856;151.182;2022-10-04T00:56:19;5.95;;;1.40;;
20802;SDS011;10562;-33.856;151.182;2022-10-04T01:02:01;5.70;;;1.30;;
20802;SDS011;10562;-33.856;151.182;2022-10-04T01:04:41;6.20;;;1.20;;
20802;SDS011;10562;-33.856;151.182;2022-10-04T01:07:18;14.90;;;1.63;;
20802;SDS011;10562;-33.856;151.182;2022-10-04T01:09:57;6.18;;;1.20;;
20802;SDS011;10562;-33.856;151.182;2022-10-04T01:12:37;7.55;;;1.30;;
20802;SDS011;10562;-33.856;151.182;2022-10-04T01:15:15;5.43;;;1.25;;
20802;SDS011;10562;-33.856;151.182;2022-10-04T01:20:52;3.78;;;1.00;;
20802;SDS011;10562;-33.856;151.182;2022-10-04T01:23:36;3.63;;;1.00;;
20802;SDS011;10562;-33.856;151.182;2022-10-04T01:29:11;4.18;;;1.20;;
20802;SDS011;10562;-33.856;151.182;2022-10-04T01:31:45;3.33;;;1.20;;
20802;SDS011;10562;-33.856;151.182;2022-10-04T01:34:18;3.80;;;1.17;;
20802;SDS011;10562;-33.856;151.182;2022-10-04T01:36:50;5.07;;;1.20;;
20802;SDS011;10562;-33.856;151.182;2022-10-04T01:39:24;4.97;;;1.40;;
20802;SDS011;10562;-33.856;151.182;2022-10-04T01:41:58;5.22;;;1.30;;
20802;SDS011;10562;-33.856;151.182;2022-10-04T01:44:35;7.75;;;1.40;;
20802;SDS011;10562;-33.856;151.182;2022-10-04T01:47:10;4.25;;;1.20;;
20802;SDS011;10562;-33.856;151.182;2022-10-04T01:49:44;4.88;;;1.20;;
20802;SDS011;10562;-33.856;151.182;2022-10-04T01:52:18;5.82;;;1.25;;
20802;SDS011;10562;-33.856;151.182;2022-10-04T01:54:57;4.53;;;1.30;;
20802;SDS011;10562;-33.856;151.182;2022-10-04T01:57:33;5.05;;;1.20;;
20802;SDS011;10562;-33.856;151.182;2022-10-04T02:00:06;2.25;;;0.90;;
20802;SDS011;10562;-33.856;151.182;2022-10-04T02:02:40;3.08;;;1.25;;
20802;SDS011;10562;-33.856;151.182;2022-10-04T02:05:17;2.88;;;1.20;;
20802;SDS011;10562;-33.856;151.182;2022-10-04T02:07:55;2.50;;;1.10;;
20802;SDS011;10562;-33.856;151.182;2022-10-04T02:10:32;4.47;;;1.05;;
20802;SDS011;10562;-33.856;151.182;2022-10-04T02:13:06;3.72;;;1.08;;
20802;SDS011;10562;-33.856;151.182;2022-10-04T02:15:39;4.80;;;1.00;;
20802;SDS011;10562;-33.856;151.182;2022-10-04T02:18:10;1.98;;;1.05;;
20802;SDS011;10562;-33.856;151.182;2022-10-04T02:20:42;4.55;;;1.38;;
20802;SDS011;10562;-33.856;151.182;2022-10-04T02:23:17;4.80;;;1.20;;
20802;SDS011;10562;-33.856;151.182;2022-10-04T02:25:51;3.72;;;1.10;;
20802;SDS011;10562;-33.856;151.182;2022-10-04T02:28:21;3.67;;;0.93;;
20802;SDS011;10562;-33.856;151.182;2022-10-04T02:30:52;5.00;;;1.00;;
20802;SDS011;10562;-33.856;151.182;2022-10-04T02:33:38;1.55;;;1.00;;
20802;SDS011;10562;-33.856;151.182;2022-10-04T02:36:10;2.20;;;0.90;;
20802;SDS011;10562;-33.856;151.182;2022-10-04T02:38:41;4.15;;;1.20;;
20802;SDS011;10562;-33.856;151.182;2022-10-04T02:41:19;4.10;;;1.00;;
20802;SDS011;10562;-33.856;151.182;2022-10-04T02:43:53;2.80;;;1.00;;
20802;SDS011;10562;-33.856;151.182;2022-10-04T02:46:28;4.35;;;0.93;;
20802;SDS011;10562;-33.856;151.182;2022-10-04T02:49:04;5.35;;;0.90;;
20802;SDS011;10562;-33.856;151.182;2022-10-04T02:51:45;3.05;;;1.23;;
20802;SDS011;10562;-33.856;151.182;2022-10-04T02:54:24;3.42;;;1.25;;
20802;SDS011;10562;-33.856;151.182;2022-10-04T02:57:01;6.70;;;1.40;;
20802;SDS011;10562;-33.856;151.182;2022-10-04T02:59:32;2.35;;;1.10;;
20802;SDS011;10562;-33.856;151.182;2022-10-04T03:02:18;5.10;;;1.00;;
20802;SDS011;10562;-33.856;151.182;2022-10-04T03:04:51;3.05;;;1.13;;
20802;SDS011;10562;-33.856;151.182;2022-10-04T03:07:24;4.47;;;1.10;;
20802;SDS011;10562;-33.856;151.182;2022-10-04T03:09:56;3.85;;;1.00;;
20802;SDS011;10562;-33.856;151.182;2022-10-04T03:12:29;3.53;;;1.20;;
20802;SDS011;10562;-33.856;151.182;2022-10-04T03:15:00;2.80;;;1.02;;
20802;SDS011;10562;-33.856;151.182;2022-10-04T03:17:31;5.90;;;1.20;;
20802;SDS011;10562;-33.856;151.182;2022-10-04T03:20:03;3.63;;;0.93;;
20802;SDS011;10562;-33.856;151.182;2022-10-04T03:22:37;5.85;;;1.20;;
20802;SDS011;10562;-33.856;151.182;2022-10-04T03:25:10;3.53;;;1.20;;
20802;SDS011;10562;-33.856;151.182;2022-10-04T03:27:47;4.15;;;1.15;;
20802;SDS011;10562;-33.856;151.182;2022-10-04T03:30:19;4.97;;;1.20;;
20802;SDS011;10562;-33.856;151.182;2022-10-04T03:32:50;2.35;;;0.90;;
20802;SDS011;10562;-33.856;151.182;2022-10-04T03:35:24;6.15;;;1.25;;
20802;SDS011;10562;-33.856;151.182;2022-10-04T03:37:58;4.03;;;1.08;;
20802;SDS011;10562;-33.856;151.182;2022-10-04T03:40:34;4.10;;;1.10;;
20802;SDS011;10562;-33.856;151.182;2022-10-04T03:43:12;3.20;;;1.20;;
20802;SDS011;10562;-33.856;151.182;2022-10-04T03:45:43;7.55;;;1.10;;
20802;SDS011;10562;-33.856;151.182;2022-10-04T03:48:16;3.15;;;1.10;;
20802;SDS011;10562;-33.856;151.182;2022-10-04T03:50:59;3.53;;;0.88;;
20802;SDS011;10562;-33.856;151.182;2022-10-04T03:53:31;5.25;;;1.00;;
20802;SDS011;10562;-33.856;151.182;2022-10-04T03:56:08;6.70;;;1.00;;
20802;SDS011;10562;-33.856;151.182;2022-10-04T03:58:45;5.70;;;1.13;;
20802;SDS011;10562;-33.856;151.182;2022-10-04T04:01:20;2.83;;;0.85;;
20802;SDS011;10562;-33.856;151.182;2022-10-04T04:04:01;5.28;;;1.00;;
20802;SDS011;10562;-33.856;151.182;2022-10-04T04:06:40;4.03;;;0.77;;
20802;SDS011;10562;-33.856;151.182;2022-10-04T04:09:16;4.57;;;1.10;;
20802;SDS011;10562;-33.856;151.182;2022-10-04T04:11:52;4.38;;;1.25;;
20802;SDS011;10562;-33.856;151.182;2022-10-04T04:14:27;3.50;;;1.10;;
20802;SDS011;10562;-33.856;151.182;2022-10-04T04:17:16;4.32;;;0.93;;
20802;SDS011;10562;-33.856;151.182;2022-10-04T04:20:04;3.50;;;1.08;;
20802;SDS011;10562;-33.856;151.182;2022-10-04T04:22:59;3.28;;;1.00;;
20802;SDS011;10562;-33.856;151.182;2022-10-04T04:25:36;2.55;;;0.88;;
20802;SDS011;10562;-33.856;151.182;2022-10-04T04:28:12;4.63;;;1.15;;
20802;SDS011;10562;-33.856;151.182;2022-10-04T04:30:55;5.20;;;1.20;;
20802;SDS011;10562;-33.856;151.182;2022-10-04T04:33:29;4.50;;;1.10;;
20802;SDS011;10562;-33.856;151.182;2022-10-04T04:36:09;4.78;;;1.05;;
20802;SDS011;10562;-33.856;151.182;2022-10-04T04:38:42;7.63;;;1.25;;
20802;SDS011;10562;-33.856;151.182;2022-10-04T04:41:25;5.65;;;1.33;;
20802;SDS011;10562;-33.856;151.182;2022-10-04T04:44:00;3.40;;;1.30;;
20802;SDS011;10562;-33.856;151.182;2022-10-04T04:46:33;8.57;;;1.48;;
20802;SDS011;10562;-33.856;151.182;2022-10-04T04:49:09;5.47;;;1.15;;
20802;SDS011;10562;-33.856;151.182;2022-10-04T04:51:45;3.55;;;1.17;;
20802;SDS011;10562;-33.856;151.182;2022-10-04T04:54:18;6.97;;;1.33;;
20802;SDS011;10562;-33.856;151.182;2022-10-04T04:56:51;3.25;;;1.20;;
20802;SDS011;10562;-33.856;151.182;2022-10-04T04:59:23;7.43;;;1.40;;
20802;SDS011;10562;-33.856;151.182;2022-10-04T05:01:58;3.63;;;1.30;;
20802;SDS011;10562;-33.856;151.182;2022-10-04T05:04:28;3.08;;;1.38;;
20802;SDS011;10562;-33.856;151.182;2022-10-04T05:07:00;4.68;;;1.40;;
20802;SDS011;10562;-33.856;151.182;2022-10-04T05:09:32;6.80;;;1.13;;
20802;SDS011;10562;-33.856;151.182;2022-10-04T05:12:05;4.22;;;1.10;;
20802;SDS011;10562;-33.856;151.182;2022-10-04T05:14:44;2.75;;;0.90;;
20802;SDS011;10562;-33.856;151.182;2022-10-04T05:17:20;6.07;;;1.00;;
20802;SDS011;10562;-33.856;151.182;2022-10-04T05:19:54;3.22;;;1.27;;
20802;SDS011;10562;-33.856;151.182;2022-10-04T05:22:26;2.97;;;1.02;;
20802;SDS011;10562;-33.856;151.182;2022-10-04T05:25:00;3.75;;;1.50;;
20802;SDS011;10562;-33.856;151.182;2022-10-04T05:27:35;3.15;;;1.00;;
20802;SDS011;10562;-33.856;151.182;2022-10-04T05:30:07;6.68;;;0.90;;
20802;SDS011;10562;-33.856;151.182;2022-10-04T05:32:53;2.80;;;0.90;;
20802;SDS011;10562;-33.856;151.182;2022-10-04T05:35:28;3.70;;;0.80;;
20802;SDS011;10562;-33.856;151.182;2022-10-04T05:38:12;1.63;;;0.88;;
20802;SDS011;10562;-33.856;151.182;2022-10-04T05:40:52;2.65;;;0.80;;
20802;SDS011;10562;-33.856;151.182;2022-10-04T05:43:34;2.55;;;0.88;;
20802;SDS011;10562;-33.856;151.182;2022-10-04T05:46:16;2.78;;;1.08;;
20802;SDS011;10562;-33.856;151.182;2022-10-04T05:48:58;2.10;;;0.90;;
20802;SDS011;10562;-33.856;151.182;2022-10-04T05:51:34;2.97;;;0.82;;
20802;SDS011;10562;-33.856;151.182;2022-10-04T05:54:21;3.28;;;1.00;;
20802;SDS011;10562;-33.856;151.182;2022-10-04T06:00:00;1.70;;;0.90;;
20802;SDS011;10562;-33.856;151.182;2022-10-04T06:03:02;4.00;;;1.20;;
20802;SDS011;10562;-33.856;151.182;2022-10-04T06:05:54;6.82;;;1.23;;
20802;SDS011;10562;-33.856;151.182;2022-10-04T06:08:39;4.55;;;1.23;;
20802;SDS011;10562;-33.856;151.182;2022-10-04T06:11:26;2.35;;;0.90;;
20802;SDS011;10562;-33.856;151.182;2022-10-04T06:17:24;4.63;;;1.00;;
20802;SDS011;10562;-33.856;151.182;2022-10-04T06:23:16;2.50;;;0.93;;
20802;SDS011;10562;-33.856;151.182;2022-10-04T06:25:48;4.03;;;1.00;;
20802;SDS011;10562;-33.856;151.182;2022-10-04T06:28:23;3.08;;;0.70;;
20802;SDS011;10562;-33.856;151.182;2022-10-04T06:31:03;1.90;;;1.00;;
20802;SDS011;10562;-33.856;151.182;2022-10-04T06:33:50;2.38;;;0.82;;
20802;SDS011;10562;-33.856;151.182;2022-10-04T06:36:43;6.30;;;1.20;;
20802;SDS011;10562;-33.856;151.182;2022-10-04T06:39:52;5.25;;;1.00;;
20802;SDS011;10562;-33.856;151.182;2022-10-04T06:42:40;3.75;;;0.93;;
20802;SDS011;10562;-33.856;151.182;2022-10-04T06:45:27;1.55;;;0.82;;
20802;SDS011;10562;-33.856;151.182;2022-10-04T06:48:17;3.88;;;0.98;;
20802;SDS011;10562;-33.856;151.182;2022-10-04T06:51:00;1.90;;;0.85;;
20802;SDS011;10562;-33.856;151.182;2022-10-04T06:53:42;2.70;;;0.98;;
20802;SDS011;10562;-33.856;151.182;2022-10-04T06:56:30;3.20;;;0.80;;
20802;SDS011;10562;-33.856;151.182;2022-10-04T06:59:23;4.03;;;1.00;;
20802;SDS011;10562;-33.856;151.182;2022-10-04T07:02:03;2.90;;;1.00;;
20802;SDS011;10562;-33.856;151.182;2022-10-04T07:04:40;2.97;;;1.10;;
20802;SDS011;10562;-33.856;151.182;2022-10-04T07:07:21;13.05;;;3.65;;
20802;SDS011;10562;-33.856;151.182;2022-10-04T07:13:12;7.30;;;1.45;;
20802;SDS011;10562;-33.856;151.182;2022-10-04T07:15:54;6.68;;;1.50;;
20802;SDS011;10562;-33.856;151.182;2022-10-04T07:18:30;5.63;;;1.58;;
20802;SDS011;10562;-33.856;151.182;2022-10-04T07:21:06;2.30;;;1.20;;
20802;SDS011;10562;-33.856;151.182;2022-10-04T07:23:43;5.38;;;1.38;;
20802;SDS011;10562;-33.856;151.182;2022-10-04T07:26:21;3.78;;;1.35;;
20802;SDS011;10562;-33.856;151.182;2022-10-04T07:28:59;5.32;;;1.70;;
20802;SDS011;10562;-33.856;151.182;2022-10-04T07:32:00;5.78;;;2.50;;
20802;SDS011;10562;-33.856;151.182;2022-10-04T07:34:36;4.90;;;1.88;;
20802;SDS011;10562;-33.856;151.182;2022-10-04T07:37:12;2.58;;;1.20;;
20802;SDS011;10562;-33.856;151.182;2022-10-04T07:39:45;5.47;;;1.35;;
20802;SDS011;10562;-33.856;151.182;2022-10-04T07:42:22;3.75;;;1.70;;
20802;SDS011;10562;-33.856;151.182;2022-10-04T07:45:04;3.83;;;1.40;;
20802;SDS011;10562;-33.856;151.182;2022-10-04T07:47:44;3.58;;;1.33;;
20802;SDS011;10562;-33.856;151.182;2022-10-04T07:50:24;4.10;;;1.30;;
20802;SDS011;10562;-33.856;151.182;2022-10-04T07:53:00;6.05;;;1.67;;
20802;SDS011;10562;-33.856;151.182;2022-10-04T07:55:44;4.60;;;1.60;;
20802;SDS011;10562;-33.856;151.182;2022-10-04T07:58:26;10.30;;;4.05;;
20802;SDS011;10562;-33.856;151.182;2022-10-04T08:01:14;2.30;;;1.30;;
20802;SDS011;10562;-33.856;151.182;2022-10-04T08:06:54;9.85;;;5.70;;
20802;SDS011;10562;-33.856;151.182;2022-10-04T08:09:38;19.90;;;9.88;;
20802;SDS011;10562;-33.856;151.182;2022-10-04T08:12:20;5.03;;;2.30;;
20802;SDS011;10562;-33.856;151.182;2022-10-04T08:14:57;3.13;;;1.60;;
20802;SDS011;10562;-33.856;151.182;2022-10-04T08:17:46;2.47;;;1.27;;
20802;SDS011;10562;-33.856;151.182;2022-10-04T08:20:34;2.67;;;1.50;;
20802;SDS011;10562;-33.856;151.182;2022-10-04T08:23:15;4.20;;;1.73;;
20802;SDS011;10562;-33.856;151.182;2022-10-04T08:26:16;4.35;;;2.05;;
20802;SDS011;10562;-33.856;151.182;2022-10-04T08:28:59;3.45;;;1.83;;
20802;SDS011;10562;-33.856;151.182;2022-10-04T08:32:03;3.50;;;1.58;;
20802;SDS011;10562;-33.856;151.182;2022-10-04T08:34:49;4.68;;;2.15;;
20802;SDS011;10562;-33.856;151.182;2022-10-04T08:37:34;3.97;;;1.60;;
20802;SDS011;10562;-33.856;151.182;2022-10-04T08:40:31;3.95;;;1.60;;
20802;SDS011;10562;-33.856;151.182;2022-10-04T08:43:23;1.40;;;1.05;;
20802;SDS011;10562;-33.856;151.182;2022-10-04T08:46:19;5.97;;;1.85;;
20802;SDS011;10562;-33.856;151.182;2022-10-04T08:49:27;5.93;;;1.30;;
20802;SDS011;10562;-33.856;151.182;2022-10-04T08:55:40;2.72;;;1.50;;
20802;SDS011;10562;-33.856;151.182;2022-10-04T08:58:35;4.93;;;2.38;;
20802;SDS011;10562;-33.856;151.182;2022-10-04T09:01:27;4.57;;;1.50;;
20802;SDS011;10562;-33.856;151.182;2022-10-04T09:04:29;5.15;;;2.20;;
20802;SDS011;10562;-33.856;151.182;2022-10-04T09:07:40;4.25;;;1.88;;
20802;SDS011;10562;-33.856;151.182;2022-10-04T09:10:35;2.50;;;1.50;;
20802;SDS011;10562;-33.856;151.182;2022-10-04T09:13:24;5.68;;;2.30;;
20802;SDS011;10562;-33.856;151.182;2022-10-04T09:16:05;4.60;;;1.80;;
20802;SDS011;10562;-33.856;151.182;2022-10-04T09:19:18;3.50;;;1.95;;
20802;SDS011;10562;-33.856;151.182;2022-10-04T09:28:08;15.35;;;6.07;;
20802;SDS011;10562;-33.856;151.182;2022-10-04T09:30:51;91.05;;;42.63;;
20802;SDS011;10562;-33.856;151.182;2022-10-04T09:33:48;47.88;;;21.50;;
20802;SDS011;10562;-33.856;151.182;2022-10-04T09:36:42;11.73;;;4.07;;
20802;SDS011;10562;-33.856;151.182;2022-10-04T09:39:43;5.90;;;2.40;;
20802;SDS011;10562;-33.856;151.182;2022-10-04T09:42:43;5.35;;;1.70;;
20802;SDS011;10562;-33.856;151.182;2022-10-04T09:45:33;4.30;;;1.85;;
20802;SDS011;10562;-33.856;151.182;2022-10-04T09:48:18;4.93;;;1.90;;
20802;SDS011;10562;-33.856;151.182;2022-10-04T09:51:01;4.47;;;1.90;;
20802;SDS011;10562;-33.856;151.182;2022-10-04T09:53:55;5.25;;;2.00;;
20802;SDS011;10562;-33.856;151.182;2022-10-04T09:56:40;3.28;;;1.70;;
20802;SDS011;10562;-33.856;151.182;2022-10-04T10:02:43;3.03;;;1.60;;
20802;SDS011;10562;-33.856;151.182;2022-10-04T10:05:43;4.20;;;1.83;;
20802;SDS011;10562;-33.856;151.182;2022-10-04T10:08:34;6.30;;;2.30;;
20802;SDS011;10562;-33.856;151.182;2022-10-04T10:11:14;3.55;;;1.80;;
20802;SDS011;10562;-33.856;151.182;2022-10-04T10:17:18;4.22;;;1.50;;
20802;SDS011;10562;-33.856;151.182;2022-10-04T10:20:07;6.45;;;1.65;;
20802;SDS011;10562;-33.856;151.182;2022-10-04T10:23:01;3.85;;;1.33;;
20802;SDS011;10562;-33.856;151.182;2022-10-04T10:29:23;3.55;;;1.63;;
20802;SDS011;10562;-33.856;151.182;2022-10-04T10:32:26;2.42;;;1.42;;
20802;SDS011;10562;-33.856;151.182;2022-10-04T10:38:45;5.80;;;1.60;;
20802;SDS011;10562;-33.856;151.182;2022-10-04T10:41:49;3.17;;;1.33;;
20802;SDS011;10562;-33.856;151.182;2022-10-04T10:44:37;3.40;;;1.33;;
20802;SDS011;10562;-33.856;151.182;2022-10-04T10:47:27;3.30;;;1.50;;
20802;SDS011;10562;-33.856;151.182;2022-10-04T10:50:15;6.55;;;1.52;;
20802;SDS011;10562;-33.856;151.182;2022-10-04T10:53:29;4.60;;;1.45;;
20802;SDS011;10562;-33.856;151.182;2022-10-04T10:56:43;3.97;;;1.50;;
20802;SDS011;10562;-33.856;151.182;2022-10-04T11:02:59;5.43;;;1.80;;
20802;SDS011;10562;-33.856;151.182;2022-10-04T11:09:01;3.45;;;1.40;;
20802;SDS011;10562;-33.856;151.182;2022-10-04T11:12:04;4.40;;;1.70;;
20802;SDS011;10562;-33.856;151.182;2022-10-04T11:18:16;3.70;;;1.58;;
20802;SDS011;10562;-33.856;151.182;2022-10-04T11:21:18;4.20;;;1.80;;
20802;SDS011;10562;-33.856;151.182;2022-10-04T11:27:46;3.33;;;1.30;;
20802;SDS011;10562;-33.856;151.182;2022-10-04T11:30:22;2.45;;;1.25;;
20802;SDS011;10562;-33.856;151.182;2022-10-04T11:41:55;4.57;;;1.30;;
20802;SDS011;10562;-33.856;151.182;2022-10-04T11:44:45;3.05;;;1.23;;
20802;SDS011;10562;-33.856;151.182;2022-10-04T11:47:36;4.03;;;1.20;;
20802;SDS011;10562;-33.856;151.182;2022-10-04T11:50:21;2.80;;;1.15;;
20802;SDS011;10562;-33.856;151.182;2022-10-04T11:59:17;2.95;;;1.05;;
20802;SDS011;10562;-33.856;151.182;2022-10-04T12:02:10;5.05;;;1.15;;
20802;SDS011;10562;-33.856;151.182;2022-10-04T12:08:05;5.25;;;1.10;;
20802;SDS011;10562;-33.856;151.182;2022-10-04T12:10:49;4.35;;;1.17;;
20802;SDS011;10562;-33.856;151.182;2022-10-04T12:13:38;2.90;;;1.30;;
20802;SDS011;10562;-33.856;151.182;2022-10-04T12:16:37;3.55;;;1.02;;
20802;SDS011;10562;-33.856;151.182;2022-10-04T12:19:41;2.50;;;1.23;;
20802;SDS011;10562;-33.856;151.182;2022-10-04T12:22:44;3.83;;;1.10;;
20802;SDS011;10562;-33.856;151.182;2022-10-04T12:25:38;7.00;;;1.20;;
20802;SDS011;10562;-33.856;151.182;2022-10-04T12:31:19;1.77;;;1.00;;
20802;SDS011;10562;-33.856;151.182;2022-10-04T12:33:56;3.38;;;1.00;;
20802;SDS011;10562;-33.856;151.182;2022-10-04T12:36:38;2.97;;;1.00;;
20802;SDS011;10562;-33.856;151.182;2022-10-04T12:39:33;5.35;;;1.20;;
20802;SDS011;10562;-33.856;151.182;2022-10-04T12:42:24;2.10;;;1.17;;
20802;SDS011;10562;-33.856;151.182;2022-10-04T12:48:02;1.75;;;0.90;;
20802;SDS011;10562;-33.856;151.182;2022-10-04T12:50:51;1.63;;;0.90;;
20802;SDS011;10562;-33.856;151.182;2022-10-04T12:53:35;2.13;;;0.95;;
20802;SDS011;10562;-33.856;151.182;2022-10-04T12:56:16;4.07;;;1.08;;
20802;SDS011;10562;-33.856;151.182;2022-10-04T12:59:04;3.08;;;1.10;;
20802;SDS011;10562;-33.856;151.182;2022-10-04T13:01:46;3.85;;;1.00;;
20802;SDS011;10562;-33.856;151.182;2022-10-04T13:04:29;1.52;;;0.90;;
20802;SDS011;10562;-33.856;151.182;2022-10-04T13:07:17;3.00;;;0.88;;
20802;SDS011;10562;-33.856;151.182;2022-10-04T13:10:17;3.60;;;1.05;;
20802;SDS011;10562;-33.856;151.182;2022-10-04T13:13:02;2.03;;;1.00;;
20802;SDS011;10562;-33.856;151.182;2022-10-04T13:15:55;1.92;;;1.10;;
20802;SDS011;10562;-33.856;151.182;2022-10-04T13:18:37;2.13;;;0.90;;
20802;SDS011;10562;-33.856;151.182;2022-10-04T13:21:15;3.92;;;1.00;;
20802;SDS011;10562;-33.856;151.182;2022-10-04T13:23:53;3.30;;;0.98;;
20802;SDS011;10562;-33.856;151.182;2022-10-04T13:26:38;3.63;;;0.90;;
20802;SDS011;10562;-33.856;151.182;2022-10-04T13:29:16;3.17;;;0.80;;
20802;SDS011;10562;-33.856;151.182;2022-10-04T13:31:54;2.25;;;1.00;;
20802;SDS011;10562;-33.856;151.182;2022-10-04T13:34:31;4.28;;;1.00;;
20802;SDS011;10562;-33.856;151.182;2022-10-04T13:40:03;2.83;;;1.10;;
20802;SDS011;10562;-33.856;151.182;2022-10-04T13:46:07;2.45;;;1.00;;
20802;SDS011;10562;-33.856;151.182;2022-10-04T13:48:51;3.03;;;1.10;;
20802;SDS011;10562;-33.856;151.182;2022-10-04T13:51:37;4.13;;;1.00;;
20802;SDS011;10562;-33.856;151.182;2022-10-04T13:54:47;3.03;;;0.95;;
20802;SDS011;10562;-33.856;151.182;2022-10-04T13:57:44;6.82;;;1.08;;
20802;SDS011;10562;-33.856;151.182;2022-10-04T14:00:38;2.80;;;0.80;;
20802;SDS011;10562;-33.856;151.182;2022-10-04T14:03:22;2.22;;;0.95;;
20802;SDS011;10562;-33.856;151.182;2022-10-04T14:06:35;3.33;;;0.90;;
20802;SDS011;10562;-33.856;151.182;2022-10-04T14:09:53;5.20;;;1.00;;
20802;SDS011;10562;-33.856;151.182;2022-10-04T14:12:44;4.10;;;0.90;;
20802;SDS011;10562;-33.856;151.182;2022-10-04T14:16:02;2.42;;;1.00;;
20802;SDS011;10562;-33.856;151.182;2022-10-04T14:25:29;3.95;;;1.30;;
20802;SDS011;10562;-33.856;151.182;2022-10-04T14:31:39;3.42;;;1.35;;
20802;SDS011;10562;-33.856;151.182;2022-10-04T14:34:31;3.60;;;1.50;;
20802;SDS011;10562;-33.856;151.182;2022-10-04T14:40:35;3.45;;;1.30;;
20802;SDS011;10562;-33.856;151.182;2022-10-04T14:43:21;2.38;;;1.10;;
20802;SDS011;10562;-33.856;151.182;2022-10-04T14:46:27;4.38;;;1.20;;
20802;SDS011;10562;-33.856;151.182;2022-10-04T14:49:08;4.22;;;1.15;;
20802;SDS011;10562;-33.856;151.182;2022-10-04T14:51:52;3.28;;;1.42;;
20802;SDS011;10562;-33.856;151.182;2022-10-04T14:54:48;2.97;;;1.38;;
20802;SDS011;10562;-33.856;151.182;2022-10-04T14:57:24;3.45;;;1.55;;
20802;SDS011;10562;-33.856;151.182;2022-10-04T15:00:17;3.50;;;1.20;;
20802;SDS011;10562;-33.856;151.182;2022-10-04T15:03:06;4.00;;;1.40;;
20802;SDS011;10562;-33.856;151.182;2022-10-04T15:06:01;3.20;;;1.35;;
20802;SDS011;10562;-33.856;151.182;2022-10-04T15:11:56;7.10;;;2.58;;
20802;SDS011;10562;-33.856;151.182;2022-10-04T15:14:33;7.30;;;2.90;;
20802;SDS011;10562;-33.856;151.182;2022-10-04T15:17:07;10.10;;;3.17;;
20802;SDS011;10562;-33.856;151.182;2022-10-04T15:19:58;11.05;;;3.00;;
20802;SDS011;10562;-33.856;151.182;2022-10-04T15:22:39;11.27;;;3.60;;
20802;SDS011;10562;-33.856;151.182;2022-10-04T15:28:06;12.88;;;3.47;;
20802;SDS011;10562;-33.856;151.182;2022-10-04T15:30:59;16.98;;;3.70;;
20802;SDS011;10562;-33.856;151.182;2022-10-04T15:33:35;20.02;;;4.63;;
20802;SDS011;10562;-33.856;151.182;2022-10-04T15:39:25;14.93;;;5.25;;
20802;SDS011;10562;-33.856;151.182;2022-10-04T15:42:12;22.02;;;8.27;;
20802;SDS011;10562;-33.856;151.182;2022-10-04T15:45:18;29.08;;;18.25;;
20802;SDS011;10562;-33.856;151.182;2022-10-04T15:48:03;27.77;;;24.65;;
20802;SDS011;10562;-33.856;151.182;2022-10-04T15:50:54;82.43;;;75.03;;
20802;SDS011;10562;-33.856;151.182;2022-10-04T15:53:44;102.07;;;93.85;;
20802;SDS011;10562;-33.856;151.182;2022-10-04T15:56:39;125.82;;;116.38;;
20802;SDS011;10562;-33.856;151.182;2022-10-04T15:59:26;147.65;;;136.18;;
20802;SDS011;10562;-33.856;151.182;2022-10-04T16:02:14;145.90;;;135.10;;
20802;SDS011;10562;-33.856;151.182;2022-10-04T16:05:24;204.25;;;189.20;;
20802;SDS011;10562;-33.856;151.182;2022-10-04T16:08:19;187.05;;;172.20;;
20802;SDS011;10562;-33.856;151.182;2022-10-04T16:11:14;184.63;;;169.65;;
20802;SDS011;10562;-33.856;151.182;2022-10-04T16:14:04;209.93;;;193.40;;
20802;SDS011;10562;-33.856;151.182;2022-10-04T16:16:50;211.65;;;194.90;;
20802;SDS011;10562;-33.856;151.182;2022-10-04T16:19:47;228.27;;;210.52;;
20802;SDS011;10562;-33.856;151.182;2022-10-04T16:22:30;255.57;;;236.32;;
20802;SDS011;10562;-33.856;151.182;2022-10-04T16:28:07;534.83;;;490.58;;
20802;SDS011;10562;-33.856;151.182;2022-10-04T16:30:57;466.33;;;428.80;;
20802;SDS011;10562;-33.856;151.182;2022-10-04T16:33:53;436.17;;;401.27;;
20802;SDS011;10562;-33.856;151.182;2022-10-04T16:36:40;450.95;;;414.63;;
20802;SDS011;10562;-33.856;151.182;2022-10-04T16:39:30;470.42;;;431.73;;
20802;SDS011;10562;-33.856;151.182;2022-10-04T16:42:21;458.98;;;421.48;;
20802;SDS011;10562;-33.856;151.182;2022-10-04T16:44:55;421.75;;;387.35;;
20802;SDS011;10562;-33.856;151.182;2022-10-04T16:47:52;409.85;;;376.88;;
20802;SDS011;10562;-33.856;151.182;2022-10-04T16:53:31;376.60;;;347.20;;
20802;SDS011;10562;-33.856;151.182;2022-10-04T16:56:16;380.55;;;351.05;;
20802;SDS011;10562;-33.856;151.182;2022-10-04T16:58:52;368.05;;;340.10;;
20802;SDS011;10562;-33.856;151.182;2022-10-04T17:01:36;354.02;;;326.10;;
20802;SDS011;10562;-33.856;151.182;2022-10-04T17:04:37;347.17;;;320.90;;
20802;SDS011;10562;-33.856;151.182;2022-10-04T17:10:30;340.67;;;314.70;;
20802;SDS011;10562;-33.856;151.182;2022-10-04T17:13:14;327.73;;;302.58;;
20802;SDS011;10562;-33.856;151.182;2022-10-04T17:15:56;330.38;;;304.73;;
20802;SDS011;10562;-33.856;151.182;2022-10-04T17:18:36;324.15;;;298.70;;
20802;SDS011;10562;-33.856;151.182;2022-10-04T17:21:22;331.20;;;305.42;;
20802;SDS011;10562;-33.856;151.182;2022-10-04T17:24:14;332.67;;;306.65;;
20802;SDS011;10562;-33.856;151.182;2022-10-04T17:26:55;339.58;;;313.05;;
20802;SDS011;10562;-33.856;151.182;2022-10-04T17:29:46;357.65;;;329.65;;
20802;SDS011;10562;-33.856;151.182;2022-10-04T17:32:32;334.60;;;308.15;;
20802;SDS011;10562;-33.856;151.182;2022-10-04T17:35:15;338.17;;;311.70;;
20802;SDS011;10562;-33.856;151.182;2022-10-04T17:38:10;356.10;;;328.65;;
20802;SDS011;10562;-33.856;151.182;2022-10-04T17:40:46;352.55;;;325.48;;
20802;SDS011;10562;-33.856;151.182;2022-10-04T17:43:23;384.52;;;354.05;;
20802;SDS011;10562;-33.856;151.182;2022-10-04T17:46:11;336.80;;;310.88;;
20802;SDS011;10562;-33.856;151.182;2022-10-04T17:48:51;339.98;;;313.92;;